• Join FlightAware (Why Join?)
  • Login
  • US Flag 
09:39AM EDT


 

Airport Tracker/Info


-or-


 

Live Flight TrackerFlight Track Log ✈ N77HE ✈ 09-Sep-2013 ✈ KEWK - KMEZ

Flight Track Log - Related Links

Times and Time Zones

All times are in EDT time to prevent confusion due to time zone crossing. See the N77HE flight status page for this flight to view local times or setup timezone preferences in your user account.

Time Position Orientation Groundspeed Altitude Reporting Facility
EDT Latitude Longitude Course Direction KTS MPH feet Rate Location/Type
11:18AM 38.0128 -97.2372 136° Southeast 154 177 3,700  Level Kansas City Center
11:19AM 37.9767 -97.1925 136° Southeast 137 158 5,900 1,560 Climbing Kansas City Center
11:20AM 37.9561 -97.1744 145° Southeast 129 148 6,900 1,380 Climbing Kansas City Center
11:21AM 37.9381 -97.1617 151° Southeast 127 146 7,900 1,560 Climbing Kansas City Center
11:21AM 37.9244 -97.1528 153° Southeast 126 145 8,500 1,440 Climbing Kansas City Center
11:22AM 37.9069 -97.1389 148° Southeast 129 148 9,400 1,320 Climbing Kansas City Center
11:23AM 37.8767 -97.1153 148° Southeast 128 147 10,900 1,380 Climbing Kansas City Center
11:24AM 37.8381 -97.0794 144° Southeast 143 165 12,300 1,200 Climbing Kansas City Center
11:25AM 37.8069 -97.0481 141° Southeast 145 167 13,400 1,080 Climbing Kansas City Center
11:26AM 37.7722 -97.0194 147° Southeast 147 169 14,600 1,140 Climbing Kansas City Center
11:27AM 37.7392 -96.9875 143° Southeast 148 170 15,800 1,020 Climbing Kansas City Center
11:28AM 37.7056 -96.9547 142° Southeast 153 176 16,800 540 Climbing Kansas City Center
11:29AM 37.6669 -96.9217 146° Southeast 166 191 17,000 60 Climbing Kansas City Center
11:30AM 37.6097 -96.8781 149° Southeast 197 227 17,000  Level Kansas City Center
11:31AM 37.5625 -96.8369 145° Southeast 205 236 17,000  Level Kansas City Center
11:32AM 37.5169 -96.7936 143° Southeast 204 235 17,000  Level Kansas City Center
11:33AM 37.4722 -96.7475 141° Southeast 207 238 17,000  Level Kansas City Center
11:34AM 37.4294 -96.6989 138° Southeast 207 238 17,000  Level Kansas City Center
11:35AM 37.3831 -96.6558 144° Southeast 206 237 17,000  Level Kansas City Center
11:36AM 37.3361 -96.6147 145° Southeast 206 237 17,000  Level Kansas City Center
11:37AM 37.2797 -96.5656 145° Southeast 206 237 17,000  Level Kansas City Center
11:38AM 37.2328 -96.5236 145° Southeast 206 237 17,000  Level Kansas City Center
11:39AM 37.1858 -96.4811 144° Southeast 207 238 17,000  Level Kansas City Center
11:40AM 37.1325 -96.4319 144° Southeast 209 241 17,000  Level Kansas City Center
11:41AM 37.0861 -96.3903 144° Southeast 206 237 17,100  Climbing Kansas City Center
11:43AM 37.0386 -96.3489 145° Southeast 207 238 17,100  Level Kansas City Center
11:44AM 36.9928 -96.3067 144° Southeast 206 237 17,100  Level Kansas City Center
11:45AM 36.9453 -96.2639 144° Southeast 208 239 17,100  Level Kansas City Center
11:46AM 36.8986 -96.2225 145° Southeast 206 237 17,100  Level Kansas City Center
11:47AM 36.8525 -96.1792 143° Southeast 207 238 17,100  Level Kansas City Center
11:48AM 36.7969 -96.1297 145° Southeast 205 236 17,100  Level Kansas City Center
11:49AM 36.7517 -96.0919 146° Southeast 200 230 17,100  Level Kansas City Center
11:50AM 36.7072 -96.0525 145° Southeast 197 227 17,100  Level Kansas City Center
11:51AM 36.6631 -96.0119 144° Southeast 197 227 17,100  Level Kansas City Center
11:52AM 36.6189 -95.9731 145° Southeast 196 226 17,100  Level Kansas City Center
11:53AM 36.5744 -95.9350 145° Southeast 194 223 17,100  Level Kansas City Center
11:54AM 36.5217 -95.8897 145° Southeast 192 221 17,100  Level Kansas City Center
11:55AM 36.4778 -95.8503 144° Southeast 193 222 17,100  Level Kansas City Center
11:56AM 36.4336 -95.8106 144° Southeast 195 224 17,100  Level Kansas City Center
11:57AM 36.3897 -95.7728 145° Southeast 195 224 17,100  Level Kansas City Center
11:58AM 36.3428 -95.7297 144° Southeast 195 224 17,100  Level Kansas City Center
11:59AM 36.2981 -95.6919 146° Southeast 195 224 17,100  Level Kansas City Center
12:00PM 36.2539 -95.6533 145° Southeast 194 223 17,100  Level Kansas City Center
12:01PM 36.2092 -95.6144 145° Southeast 195 224 17,100  Level Kansas City Center
12:02PM 36.1558 -95.5681 145° Southeast 196 226 17,100  Level Kansas City Center
12:03PM 36.1111 -95.5278 144° Southeast 197 227 17,100  Level Kansas City Center
12:04PM 36.0664 -95.4889 145° Southeast 197 227 17,100  Level Kansas City Center
12:05PM 36.0169 -95.4475 146° Southeast 197 227 17,100  Level Kansas City Center
12:06PM 35.9733 -95.4097 145° Southeast 193 222 17,100  Level Kansas City Center
12:07PM 35.9294 -95.3706 144° Southeast 194 223 17,100  Level Kansas City Center
12:08PM 35.8856 -95.3328 145° Southeast 193 222 17,100  Level Kansas City Center
12:09PM 35.8403 -95.2942 145° Southeast 195 224 17,100  Level Kansas City Center
12:10PM 35.7964 -95.2572 146° Southeast 194 223 17,100  Level Kansas City Center
12:11PM 35.7431 -95.2125 146° Southeast 194 223 17,100  Level Kansas City Center
12:13PM 35.6992 -95.1728 144° Southeast 194 223 17,100  Level Kansas City Center
12:14PM 35.6278 -95.1153 147° Southeast 192 221 17,100  Level Memphis Center
12:15PM 35.5833 -95.0769 145° Southeast 192 221 17,100  Level Memphis Center
12:16PM 35.5389 -95.0389 145° Southeast 192 221 17,100  Level Memphis Center
12:17PM 35.4944 -95.0006 145° Southeast 192 221 17,100  Level Memphis Center
12:18PM 35.4519 -94.9650 146° Southeast 192 221 17,100  Level Memphis Center
12:19PM 35.4078 -94.9244 143° Southeast 192 221 17,100  Level Memphis Center
12:20PM 35.3631 -94.8889 147° Southeast 192 221 17,100 -300 Level Memphis Center
12:21PM 35.3164 -94.8508 146° Southeast 192 221 16,500 -840 Descending Memphis Center
12:22PM 35.2639 -94.8072 146° Southeast 210 242 15,500 -1,080 Descending Memphis Center
12:23PM 35.2133 -94.7589 142° Southeast 216 249 14,400 -1,200 Descending Memphis Center
12:24PM 35.1608 -94.7156 146° Southeast 228 262 13,200 -1,080 Descending Memphis Center
12:25PM 35.1061 -94.6694 145° Southeast 228 262 12,300 -1,020 Descending Memphis Center
12:26PM 35.0533 -94.6211 143° Southeast 235 270 11,200 -1,080 Descending Memphis Center
12:27PM 35.0006 -94.5806 148° Southeast 230 265 10,200 -1,080 Descending Memphis Center
12:28PM 34.9519 -94.5350 142° Southeast 225 259 9,100 -1,140 Descending Memphis Center
12:29PM 34.9033 -94.4944 146° Southeast 225 259 8,000 -1,020 Descending Memphis Center
12:30PM 34.8547 -94.4542 146° Southeast 225 259 7,100 -960 Descending Memphis Center
12:31PM 34.8117 -94.4294 155° Southeast 209 241 6,100 -1,080 Descending Memphis Center
12:32PM 34.7628 -94.3892 146° Southeast 204 235 5,000 -960 Descending Memphis Center
12:33PM 34.7183 -94.3467 142° Southeast 204 235 4,200 -840 Descending Memphis Center